Time;durP1;ratioP1;P1;durP2;ratioP2;P2;SDS_P1;SDS_P2;PMS_P1;PMS_P2;Temp;Humidity;BMP_temperature;BMP_pressure;BME280_temperature;BME280_humidity;BME280_pressure;Samples;Min_cycle;Max_cycle;Signal;HPM_P1;HPM_P2
2023/02/03 00:01:26;;;;;;;13.00;10.70;;;4.90;99.90;;;;;;6201937;28;20823;-68
2023/02/03 00:04:29;;;;;;;12.50;10.40;;;4.90;99.90;;;;;;6201940;28;21398;-67
2023/02/03 00:07:33;;;;;;;12.37;11.13;;;5.00;99.90;;;;;;6202268;28;20663;-68
2023/02/03 00:10:39;;;;;;;11.80;10.63;;;5.00;99.90;;;;;;6191442;28;21033;-67
2023/02/03 00:13:42;;;;;;;12.33;10.90;;;5.00;99.90;;;;;;6177911;28;20492;-67
2023/02/03 00:16:46;;;;;;;14.27;11.60;;;4.90;99.90;;;;;;6177885;28;20853;-67
2023/02/03 00:19:49;;;;;;;13.53;11.40;;;4.90;99.90;;;;;;6177636;28;20492;-67
2023/02/03 00:22:52;;;;;;;12.03;10.90;;;4.80;99.90;;;;;;6177687;28;20868;-68
2023/02/03 00:25:57;;;;;;;11.93;10.73;;;4.80;99.90;;;;;;6181929;28;20808;-68
2023/02/03 00:29:00;;;;;;;13.30;11.50;;;4.80;99.90;;;;;;6201437;28;20543;-68
2023/02/03 00:32:04;;;;;;;11.97;10.87;;;4.70;99.90;;;;;;6201626;28;20543;-68
2023/02/03 00:35:08;;;;;;;13.33;12.10;;;4.70;99.90;;;;;;6201201;28;20874;-68
2023/02/03 00:38:11;;;;;;;14.93;11.90;;;4.70;99.90;;;;;;6201250;28;20477;-67
2023/02/03 00:41:16;;;;;;;13.67;12.20;;;4.70;99.90;;;;;;6201218;28;20542;-67
2023/02/03 00:44:19;;;;;;;13.90;12.50;;;4.60;99.90;;;;;;6201035;28;20477;-68
2023/02/03 00:47:22;;;;;;;14.30;12.90;;;4.70;99.90;;;;;;6201607;28;20564;-68
2023/02/03 00:50:26;;;;;;;13.07;11.37;;;4.70;99.90;;;;;;6200940;28;20476;-67
2023/02/03 00:53:29;;;;;;;13.07;11.87;;;4.70;99.90;;;;;;6201185;28;20491;-68
2023/02/03 00:56:34;;;;;;;13.63;12.03;;;4.70;99.90;;;;;;6201074;28;20563;-67
2023/02/03 00:59:37;;;;;;;11.67;10.50;;;4.60;99.90;;;;;;6200754;28;20485;-67
2023/02/03 01:02:40;;;;;;;12.37;10.97;;;4.60;99.90;;;;;;6200690;28;20520;-68
2023/02/03 01:05:43;;;;;;;12.17;10.97;;;4.70;99.90;;;;;;6200985;28;20473;-68
2023/02/03 01:08:47;;;;;;;11.20;10.10;;;4.70;99.90;;;;;;6200772;28;20503;-68
2023/02/03 01:11:52;;;;;;;12.93;11.60;;;4.70;99.90;;;;;;6200448;28;20534;-68
2023/02/03 01:14:55;;;;;;;13.40;12.07;;;4.70;99.90;;;;;;6186348;28;20995;-68
2023/02/03 01:17:58;;;;;;;13.20;11.13;;;4.70;99.90;;;;;;6176572;28;20478;-67
2023/02/03 01:21:06;;;;;;;12.60;11.40;;;4.70;99.90;;;;;;6176437;28;20591;-67
2023/02/03 01:24:09;;;;;;;11.27;10.00;;;4.60;99.90;;;;;;6176660;28;20941;-67
2023/02/03 01:27:14;;;;;;;10.50;9.03;;;4.50;99.90;;;;;;6191455;28;20811;-67
2023/02/03 01:30:18;;;;;;;10.07;9.07;;;4.50;99.90;;;;;;6200142;28;21159;-68
2023/02/03 01:33:21;;;;;;;10.00;9.10;;;4.60;99.90;;;;;;6200851;28;20465;-68
2023/02/03 01:36:26;;;;;;;9.57;8.77;;;4.60;99.90;;;;;;6200506;28;20580;-68
2023/02/03 01:39:29;;;;;;;11.43;9.03;;;4.70;99.90;;;;;;6200430;28;20535;-68
2023/02/03 01:42:34;;;;;;;11.57;10.37;;;4.70;99.90;;;;;;6201298;28;20480;-68
2023/02/03 01:45:38;;;;;;;11.37;10.20;;;4.80;99.90;;;;;;6197072;28;20516;-68
2023/02/03 01:48:42;;;;;;;12.47;10.70;;;4.80;99.90;;;;;;6200276;28;20481;-67
2023/02/03 01:51:46;;;;;;;12.00;10.50;;;4.80;99.90;;;;;;6200482;28;20615;-68
2023/02/03 01:54:52;;;;;;;9.87;8.97;;;4.80;99.90;;;;;;6200290;28;20961;-67
2023/02/03 01:58:01;;;;;;;11.33;9.63;;;4.80;99.90;;;;;;6204927;28;20473;-68
2023/02/03 02:01:05;;;;;;;9.37;8.50;;;4.80;99.90;;;;;;6204944;28;20472;-68
2023/02/03 02:04:08;;;;;;;10.30;8.87;;;4.70;99.90;;;;;;6204137;28;20520;-67
2023/02/03 02:07:12;;;;;;;10.10;8.70;;;4.80;99.90;;;;;;6204392;28;20588;-67
2023/02/03 02:10:16;;;;;;;11.00;8.37;;;4.80;99.90;;;;;;6204582;28;20586;-68
2023/02/03 02:13:21;;;;;;;9.97;8.97;;;4.70;99.90;;;;;;6204722;28;20564;-68
2023/02/03 02:16:35;;;;;;;12.37;11.00;;;4.70;99.90;;;;;;6204246;28;20542;-67
2023/02/03 02:20:00;;;;;;;13.13;11.73;;;4.70;99.90;;;;;;6204168;28;20481;-68
2023/02/03 02:23:40;;;;;;;17.20;12.53;;;4.70;99.90;;;;;;6204216;28;20543;-68
2023/02/03 02:26:54;;;;;;;16.20;12.40;;;4.50;99.90;;;;;;6204022;28;20501;-68
2023/02/03 02:30:42;;;;;;;14.63;13.23;;;4.40;99.90;;;;;;6204056;28;20931;-68
2023/02/03 02:33:54;;;;;;;15.50;13.10;;;4.30;99.90;;;;;;6150180;28;20465;-68
2023/02/03 02:37:04;;;;;;;15.43;11.83;;;4.20;99.90;;;;;;6203882;28;20473;-68
2023/02/03 02:40:15;;;;;;;16.20;13.47;;;4.20;99.90;;;;;;6204073;28;20495;-68
2023/02/03 02:43:25;;;;;;;15.30;13.23;;;4.20;99.90;;;;;;6204320;28;20481;-68
2023/02/03 02:46:34;;;;;;;16.63;14.77;;;4.10;99.90;;;;;;6203972;28;20523;-68
2023/02/03 02:49:44;;;;;;;15.30;13.70;;;4.10;99.90;;;;;;6203783;28;20476;-67
2023/02/03 02:52:50;;;;;;;14.53;11.93;;;4.10;99.90;;;;;;6203918;28;20473;-67
2023/02/03 02:55:55;;;;;;;16.50;13.93;;;4.10;99.90;;;;;;6203575;28;20485;-68
2023/02/03 02:59:01;;;;;;;17.17;13.50;;;4.20;99.90;;;;;;6203684;28;20484;-67
2023/02/03 03:02:04;;;;;;;14.47;12.50;;;4.20;99.90;;;;;;6203258;28;20515;-68
2023/02/03 03:05:12;;;;;;;15.70;13.17;;;4.20;99.90;;;;;;6203327;28;20476;-68
2023/02/03 03:08:18;;;;;;;14.17;12.53;;;4.10;99.90;;;;;;6203331;28;20570;-67
2023/02/03 03:11:23;;;;;;;13.73;12.30;;;4.20;99.90;;;;;;6203488;28;20481;-67
2023/02/03 03:14:31;;;;;;;14.63;12.30;;;4.20;99.90;;;;;;6202820;28;20611;-68
2023/02/03 03:17:40;;;;;;;10.73;9.60;;;4.10;99.90;;;;;;6203102;28;20477;-68
2023/02/03 03:20:50;;;;;;;14.30;10.20;;;4.10;99.90;;;;;;6202853;28;20485;-67
2023/02/03 03:23:57;;;;;;;10.40;9.43;;;4.10;99.90;;;;;;6202990;28;20479;-67
2023/02/03 03:27:06;;;;;;;10.60;8.97;;;4.00;99.90;;;;;;6202634;28;20551;-67
2023/02/03 03:30:16;;;;;;;9.57;8.47;;;4.00;99.90;;;;;;6202461;28;20485;-68
2023/02/03 03:33:20;;;;;;;8.70;7.90;;;4.00;99.90;;;;;;6203011;28;20441;-67
2023/02/03 03:36:29;;;;;;;9.50;8.60;;;4.00;99.90;;;;;;6202935;28;20567;-67
2023/02/03 03:39:41;;;;;;;8.00;7.20;;;3.90;99.90;;;;;;6202615;28;20469;-67
2023/02/03 03:42:49;;;;;;;8.87;8.03;;;3.90;99.90;;;;;;6202817;28;20484;-67
2023/02/03 03:45:58;;;;;;;8.37;7.50;;;3.90;99.90;;;;;;6202554;28;20937;-67
2023/02/03 03:49:03;;;;;;;10.43;9.30;;;3.90;99.90;;;;;;6202485;28;20520;-67
2023/02/03 03:52:10;;;;;;;10.57;9.30;;;3.80;99.90;;;;;;6202959;28;20527;-68
2023/02/03 03:55:16;;;;;;;11.30;10.10;;;3.70;99.90;;;;;;6192539;28;21086;-68
2023/02/03 03:58:24;;;;;;;14.30;11.90;;;3.70;99.90;;;;;;6202193;28;20563;-68
2023/02/03 04:01:29;;;;;;;17.00;11.63;;;3.70;99.90;;;;;;6202383;28;20508;-68
2023/02/03 04:04:35;;;;;;;14.20;11.80;;;3.70;99.90;;;;;;6201765;28;20958;-68
2023/02/03 04:07:42;;;;;;;15.43;12.60;;;3.60;99.90;;;;;;6202068;28;20483;-68
2023/02/03 04:10:45;;;;;;;15.77;13.30;;;3.60;99.90;;;;;;6202013;28;20967;-67
2023/02/03 04:13:49;;;;;;;16.17;13.37;;;3.60;99.90;;;;;;6201510;28;20476;-68
2023/02/03 04:16:52;;;;;;;28.63;16.23;;;3.50;99.90;;;;;;6201539;28;20481;-68
2023/02/03 04:19:55;;;;;;;20.30;16.03;;;3.40;99.90;;;;;;6200674;28;20921;-68
2023/02/03 04:23:00;;;;;;;17.87;14.20;;;3.40;99.90;;;;;;6201844;28;20477;-68
2023/02/03 04:26:03;;;;;;;18.57;16.27;;;3.40;99.90;;;;;;6201554;28;20486;-68
2023/02/03 04:29:07;;;;;;;24.17;16.97;;;3.40;99.90;;;;;;6201665;28;20488;-67
2023/02/03 04:32:10;;;;;;;42.27;18.40;;;3.50;99.90;;;;;;6201498;28;20489;-68
2023/02/03 04:35:13;;;;;;;23.93;18.37;;;3.40;99.90;;;;;;6201440;28;20476;-67
2023/02/03 04:38:18;;;;;;;33.90;16.73;;;3.30;99.90;;;;;;6201634;28;20493;-67
2023/02/03 04:41:21;;;;;;;32.07;18.23;;;3.20;99.90;;;;;;6201254;28;20821;-67
2023/02/03 04:44:24;;;;;;;37.77;17.33;;;3.10;99.90;;;;;;6201427;28;20563;-67
2023/02/03 04:47:27;;;;;;;20.80;16.50;;;3.10;99.90;;;;;;6201382;28;20531;-68
2023/02/03 04:50:31;;;;;;;41.80;19.50;;;3.10;99.90;;;;;;6201282;28;20477;-67
2023/02/03 04:53:36;;;;;;;25.83;16.33;;;3.30;99.90;;;;;;6201066;28;20477;-68
2023/02/03 04:56:39;;;;;;;23.40;16.73;;;3.30;99.90;;;;;;6200985;28;20485;-68
2023/02/03 04:59:42;;;;;;;26.80;17.77;;;3.40;99.90;;;;;;6196214;28;20877;-68
2023/02/03 05:02:45;;;;;;;18.27;16.00;;;3.50;99.90;;;;;;6201128;28;20511;-68
2023/02/03 05:05:49;;;;;;;25.20;15.93;;;3.50;99.90;;;;;;6200814;28;20560;-68
2023/02/03 05:08:55;;;;;;;21.37;15.20;;;3.60;99.90;;;;;;6200900;28;20532;-68
2023/02/03 05:11:58;;;;;;;24.53;16.00;;;3.70;99.90;;;;;;6200907;28;20481;-68
2023/02/03 05:15:01;;;;;;;23.50;16.37;;;3.80;99.90;;;;;;6200537;28;20562;-68
2023/02/03 05:18:04;;;;;;;20.10;15.80;;;3.80;99.90;;;;;;6200862;28;20488;-68
2023/02/03 05:21:07;;;;;;;19.00;15.60;;;3.90;99.90;;;;;;6200626;28;20465;-68
2023/02/03 05:24:12;;;;;;;20.23;15.63;;;3.80;99.90;;;;;;6200598;28;20930;-68
2023/02/03 05:27:15;;;;;;;17.87;15.40;;;3.80;99.90;;;;;;6201260;28;20437;-68
2023/02/03 05:30:19;;;;;;;24.67;16.77;;;3.80;99.90;;;;;;6200179;28;20496;-68
2023/02/03 05:33:22;;;;;;;17.90;15.50;;;3.80;99.90;;;;;;6204041;28;20512;-68
2023/02/03 05:36:25;;;;;;;18.37;15.57;;;3.90;99.90;;;;;;6204061;28;20567;-68
2023/02/03 05:39:30;;;;;;;22.40;16.10;;;3.90;99.90;;;;;;6203945;28;20464;-67
2023/02/03 05:42:32;;;;;;;20.37;16.00;;;3.90;99.90;;;;;;6203957;28;20808;-67
2023/02/03 05:45:35;;;;;;;18.10;14.07;;;3.90;99.90;;;;;;6203651;28;20780;-68
2023/02/03 05:48:38;;;;;;;15.53;13.90;;;4.00;99.90;;;;;;6204309;28;20472;-68
2023/02/03 05:51:42;;;;;;;20.37;13.60;;;4.00;99.90;;;;;;6203587;28;20547;-68
2023/02/03 05:54:46;;;;;;;18.03;13.50;;;4.00;99.90;;;;;;6203693;28;20543;-68
2023/02/03 05:57:49;;;;;;;15.80;12.33;;;4.00;99.90;;;;;;6203775;28;20481;-67
2023/02/03 06:00:53;;;;;;;20.33;14.10;;;4.00;99.90;;;;;;6210772;28;20468;-67
2023/02/03 06:03:56;;;;;;;15.90;13.40;;;4.00;99.90;;;;;;6205882;28;20476;-68
2023/02/03 06:06:59;;;;;;;18.77;12.97;;;4.00;99.90;;;;;;6204186;28;20795;-68
2023/02/03 06:10:04;;;;;;;18.27;12.83;;;4.00;99.90;;;;;;6202441;28;20857;-68
2023/02/03 06:13:10;;;;;;;17.30;13.50;;;4.10;99.90;;;;;;6202742;28;20476;-68
2023/02/03 06:16:13;;;;;;;13.40;12.00;;;4.10;99.90;;;;;;6203758;28;20559;-68
2023/02/03 06:19:16;;;;;;;13.87;11.40;;;4.10;99.90;;;;;;6201294;28;20477;-68
2023/02/03 06:22:19;;;;;;;14.57;11.20;;;4.10;99.90;;;;;;6186527;28;20484;-68
2023/02/03 06:25:24;;;;;;;12.33;10.97;;;4.10;99.90;;;;;;6179076;28;20485;-68
2023/02/03 06:28:27;;;;;;;12.57;11.20;;;4.00;99.90;;;;;;6163635;28;1143460;-70
2023/02/03 06:31:30;;;;;;;13.50;10.67;;;4.00;99.90;;;;;;6204574;28;20319;-70
2023/02/03 06:34:34;;;;;;;12.87;10.60;;;4.00;99.90;;;;;;6204790;28;20468;-70
2023/02/03 06:37:37;;;;;;;11.47;10.27;;;4.00;99.90;;;;;;6203889;28;20964;-70
2023/02/03 06:40:41;;;;;;;12.13;9.97;;;4.00;99.90;;;;;;6203951;28;20961;-70
2023/02/03 06:43:45;;;;;;;13.53;11.00;;;4.10;99.90;;;;;;6204127;28;20535;-70
2023/02/03 06:46:49;;;;;;;13.83;11.23;;;4.20;99.90;;;;;;6204057;28;20473;-70
2023/02/03 06:49:52;;;;;;;11.80;9.60;;;4.20;99.90;;;;;;6203845;28;20477;-70
2023/02/03 06:52:56;;;;;;;14.40;11.77;;;4.20;99.90;;;;;;6203960;28;20539;-68
2023/02/03 06:56:00;;;;;;;14.03;11.10;;;4.20;99.90;;;;;;6203753;28;20973;-68
2023/02/03 06:59:04;;;;;;;12.67;10.57;;;4.30;99.90;;;;;;6203794;28;20536;-64
2023/02/03 07:02:07;;;;;;;12.93;11.53;;;4.40;99.90;;;;;;6203830;28;20566;-67
2023/02/03 07:05:11;;;;;;;13.87;10.10;;;4.50;99.90;;;;;;6203422;28;20480;-67
2023/02/03 07:08:14;;;;;;;11.30;10.13;;;4.60;99.90;;;;;;6198929;28;20469;-67
2023/02/03 07:11:18;;;;;;;14.43;10.50;;;4.60;99.90;;;;;;6203634;28;20513;-68
2023/02/03 07:14:22;;;;;;;10.63;9.53;;;4.80;99.90;;;;;;6204032;28;20560;-64
2023/02/03 07:17:25;;;;;;;10.83;9.63;;;4.90;99.90;;;;;;6203315;28;20801;-64
2023/02/03 07:20:28;;;;;;;11.50;9.63;;;5.10;99.90;;;;;;6203688;28;20520;-64
2023/02/03 07:23:32;;;;;;;10.10;9.10;;;5.20;99.90;;;;;;6203539;28;20614;-64
2023/02/03 07:26:37;;;;;;;11.47;7.83;;;5.40;99.90;;;;;;6203422;28;20764;-64
2023/02/03 07:29:41;;;;;;;9.50;8.53;;;5.50;99.90;;;;;;6202580;28;20489;-65
2023/02/03 07:32:48;;;;;;;10.30;8.63;;;5.60;99.90;;;;;;6202937;28;20484;-64
2023/02/03 07:35:52;;;;;;;9.80;8.80;;;5.90;99.90;;;;;;6202782;28;20488;-64
2023/02/03 07:38:55;;;;;;;9.50;8.50;;;6.00;99.90;;;;;;6203017;28;20489;-64
2023/02/03 07:42:00;;;;;;;7.77;6.83;;;6.10;99.90;;;;;;6202795;28;20584;-64
2023/02/03 07:45:04;;;;;;;7.10;5.80;;;6.10;99.90;;;;;;6202711;28;20481;-64
2023/02/03 07:48:07;;;;;;;6.53;5.67;;;6.20;99.90;;;;;;6178391;28;20512;-65
2023/02/03 07:51:10;;;;;;;5.63;5.13;;;6.30;99.90;;;;;;6178277;28;20469;-64
2023/02/03 07:54:14;;;;;;;6.23;5.40;;;6.30;99.90;;;;;;6177850;28;20454;-64
2023/02/03 07:57:18;;;;;;;5.77;5.27;;;6.40;99.90;;;;;;6178284;28;20478;-64
2023/02/03 08:00:22;;;;;;;5.17;4.63;;;6.30;99.90;;;;;;6178601;28;20548;-64
2023/02/03 08:03:25;;;;;;;6.37;5.33;;;6.30;99.90;;;;;;6178513;28;20450;-64
2023/02/03 08:06:29;;;;;;;8.03;5.10;;;6.40;99.90;;;;;;6178061;28;20466;-64
2023/02/03 08:09:32;;;;;;;6.23;5.63;;;6.50;99.90;;;;;;6167401;28;20904;-65
2023/02/03 08:12:37;;;;;;;13.50;12.10;;;6.40;99.90;;;;;;6198377;28;20509;-64
2023/02/03 08:15:41;;;;;;;15.93;13.33;;;6.40;99.90;;;;;;6177752;28;20492;-64
2023/02/03 08:18:44;;;;;;;15.20;13.60;;;6.30;99.90;;;;;;6177038;28;20564;-64
2023/02/03 08:21:47;;;;;;;18.10;14.60;;;6.30;99.90;;;;;;6153877;28;20537;-64
2023/02/03 08:24:50;;;;;;;17.83;14.23;;;6.30;99.90;;;;;;6153629;28;20517;-64
2023/02/03 08:27:55;;;;;;;15.17;13.70;;;6.20;99.90;;;;;;6174060;28;20640;-64
2023/02/03 08:30:58;;;;;;;14.27;12.50;;;6.30;99.90;;;;;;6178576;28;20524;-64
2023/02/03 08:34:01;;;;;;;14.73;13.07;;;6.60;99.90;;;;;;6178281;28;20474;-65
2023/02/03 08:37:19;;;;;;;17.60;15.70;;;6.70;99.90;;;;;;6177184;28;20982;-64
2023/02/03 08:40:22;;;;;;;20.27;16.40;;;6.60;99.90;;;;;;6177955;28;20551;-64
2023/02/03 08:43:27;;;;;;;17.47;15.57;;;6.50;99.90;;;;;;6177287;28;20473;-64
2023/02/03 08:46:30;;;;;;;18.00;15.90;;;6.50;99.90;;;;;;6177437;28;20489;-64
2023/02/03 08:49:38;;;;;;;21.40;15.47;;;6.40;99.90;;;;;;6176853;28;20470;-65
2023/02/03 08:52:41;;;;;;;22.77;17.10;;;6.30;99.90;;;;;;6177216;28;20474;-64
2023/02/03 08:55:44;;;;;;;21.13;18.20;;;6.20;99.90;;;;;;6177254;28;20555;-64
2023/02/03 08:58:49;;;;;;;24.93;18.20;;;6.10;99.90;;;;;;6177043;28;20480;-64
2023/02/03 09:01:52;;;;;;;21.47;17.20;;;5.90;99.90;;;;;;6176806;28;20474;-64
2023/02/03 09:04:56;;;;;;;23.40;17.40;;;6.00;99.90;;;;;;6176904;28;20474;-64
2023/02/03 09:07:59;;;;;;;22.43;16.60;;;6.20;99.90;;;;;;6176966;28;20470;-64
2023/02/03 09:11:02;;;;;;;20.60;18.10;;;6.60;99.90;;;;;;6177160;28;20469;-64
2023/02/03 09:14:07;;;;;;;20.93;16.20;;;6.50;99.90;;;;;;6172367;28;20952;-64
2023/02/03 09:17:11;;;;;;;22.70;16.23;;;6.40;99.90;;;;;;6176717;28;20478;-64
2023/02/03 09:20:14;;;;;;;19.67;15.83;;;6.50;99.90;;;;;;6164019;28;20497;-64
2023/02/03 09:23:17;;;;;;;19.87;15.87;;;6.60;99.90;;;;;;6152836;28;20494;-64
2023/02/03 09:26:20;;;;;;;16.70;14.90;;;6.50;99.90;;;;;;6160889;28;20473;-66
2023/02/03 09:29:25;;;;;;;19.23;16.07;;;6.60;99.90;;;;;;6176526;28;20954;-65
2023/02/03 09:32:28;;;;;;;14.37;12.53;;;6.50;99.90;;;;;;6177150;28;20489;-64
2023/02/03 09:35:31;;;;;;;14.03;12.43;;;6.60;99.90;;;;;;6176378;28;20470;-65
2023/02/03 09:38:35;;;;;;;16.57;13.47;;;6.90;99.90;;;;;;6176416;28;20482;-65
2023/02/03 09:41:54;;;;;;;14.70;11.73;;;6.90;99.90;;;;;;6176716;28;20508;-65
2023/02/03 09:45:11;;;;;;;12.37;10.83;;;7.30;99.90;;;;;;6176551;28;20497;-65
2023/02/03 09:48:20;;;;;;;12.47;11.00;;;7.70;99.90;;;;;;6176336;28;20456;-64
2023/02/03 09:51:27;;;;;;;8.50;7.80;;;8.10;99.90;;;;;;6176468;28;20437;-64
2023/02/03 09:54:37;;;;;;;9.53;8.60;;;8.40;99.90;;;;;;6176626;28;20468;-65
2023/02/03 09:57:47;;;;;;;9.90;8.90;;;8.90;99.90;;;;;;6176543;28;20465;-65
2023/02/03 10:00:54;;;;;;;10.50;9.60;;;11.10;99.90;;;;;;6176288;28;20977;-64
2023/02/03 10:04:04;;;;;;;8.93;8.03;;;13.80;94.50;;;;;;6176128;28;20486;-64
2023/02/03 10:07:12;;;;;;;8.93;8.13;;;14.40;90.40;;;;;;6176297;28;20812;-64
2023/02/03 10:10:21;;;;;;;9.03;8.23;;;15.60;85.70;;;;;;6175956;28;20488;-64
2023/02/03 10:13:31;;;;;;;8.10;7.30;;;17.20;78.90;;;;;;6176201;28;20470;-64
2023/02/03 10:16:45;;;;;;;7.73;7.10;;;18.60;69.40;;;;;;6168520;28;20934;-64
2023/02/03 10:19:55;;;;;;;4.40;4.00;;;20.10;61.30;;;;;;6180203;28;20609;-64
2023/02/03 10:23:02;;;;;;;3.77;3.47;;;20.60;54.40;;;;;;6180536;28;20231;-64
2023/02/03 10:26:09;;;;;;;3.47;3.17;;;22.20;48.20;;;;;;6180124;28;20237;-64
2023/02/03 10:29:20;;;;;;;3.93;3.63;;;22.30;44.20;;;;;;6180344;28;20242;-64
2023/02/03 10:32:27;;;;;;;4.77;4.37;;;23.10;43.40;;;;;;6180393;28;20563;-64
2023/02/03 10:35:36;;;;;;;3.80;2.53;;;25.00;41.10;;;;;;6180264;28;20241;-64
2023/02/03 10:38:50;;;;;;;2.40;2.20;;;25.50;36.00;;;;;;6180037;28;20230;-64
2023/02/03 10:41:54;;;;;;;4.60;2.83;;;27.30;32.40;;;;;;6180106;28;20252;-64
2023/02/03 10:44:59;;;;;;;3.13;2.83;;;30.10;30.70;;;;;;6179973;28;20256;-64
2023/02/03 10:48:06;;;;;;;2.95;2.75;;;32.30;26.20;;;;;;6179833;28;20248;-64
2023/02/03 10:51:17;;;;;;;3.28;2.53;;;34.10;24.00;;;;;;6180130;28;20210;-66
2023/02/03 10:54:30;;;;;;;3.40;2.40;;;35.20;22.00;;;;;;6179639;28;20526;-64
2023/02/03 10:57:38;;;;;;;4.45;2.67;;;35.30;20.50;;;;;;6179881;28;20699;-64
2023/02/03 11:00:41;;;;;;;3.05;2.65;;;35.20;20.20;;;;;;6179986;28;20230;-64
2023/02/03 11:03:56;;;;;;;3.38;3.03;;;34.00;20.50;;;;;;6180212;28;20302;-64
2023/02/03 11:07:01;;;;;;;3.80;3.50;;;33.20;21.30;;;;;;6179588;28;20225;-66
2023/02/03 11:10:28;;;;;;;4.13;3.83;;;32.80;21.30;;;;;;6179776;28;20248;-66
2023/02/03 11:13:32;;;;;;;5.20;4.70;;;31.70;22.20;;;;;;6179743;28;20241;-65
2023/02/03 11:16:36;;;;;;;7.90;5.73;;;30.40;23.00;;;;;;6179160;28;20327;-65
2023/02/03 11:19:44;;;;;;;6.77;6.03;;;28.20;25.00;;;;;;6178846;28;20326;-65
2023/02/03 11:22:48;;;;;;;10.03;6.70;;;26.50;26.60;;;;;;6179661;28;20240;-64
2023/02/03 11:25:52;;;;;;;7.33;6.63;;;25.20;28.60;;;;;;6179232;28;20233;-64
2023/02/03 11:28:58;;;;;;;11.67;10.20;;;24.50;29.60;;;;;;6192211;28;20244;-64
2023/02/03 11:32:06;;;;;;;13.37;12.20;;;24.60;30.10;;;;;;6187968;28;20246;-64
2023/02/03 11:35:18;;;;;;;9.30;8.40;;;24.80;30.20;;;;;;6179267;28;20289;-64
2023/02/03 11:38:30;;;;;;;9.13;8.33;;;24.90;30.30;;;;;;6178338;28;20239;-64
2023/02/03 11:41:37;;;;;;;9.40;8.50;;;25.20;29.50;;;;;;6178560;28;20691;-64
2023/02/03 11:44:41;;;;;;;6.60;6.10;;;23.60;30.80;;;;;;6178493;28;20233;-64
2023/02/03 11:47:46;;;;;;;6.03;5.50;;;23.10;31.50;;;;;;6178321;28;20591;-64
2023/02/03 11:50:58;;;;;;;6.10;5.50;;;22.50;31.50;;;;;;6178381;28;20241;-64
2023/02/03 11:54:14;;;;;;;5.30;4.50;;;22.30;31.10;;;;;;6178059;28;20231;-64
2023/02/03 11:57:30;;;;;;;4.00;3.60;;;22.10;32.60;;;;;;6178480;28;20289;-65
2023/02/03 12:00:41;;;;;;;4.37;3.20;;;22.60;31.60;;;;;;6178413;28;20670;-64
2023/02/03 12:04:15;;;;;;;3.40;3.10;;;22.10;31.20;;;;;;6178355;28;20241;-64
2023/02/03 12:07:43;;;;;;;6.10;4.57;;;21.00;32.90;;;;;;6178318;28;20230;-64
2023/02/03 12:10:56;;;;;;;4.80;3.87;;;20.20;35.20;;;;;;6178092;28;20249;-64
2023/02/03 12:14:17;;;;;;;5.50;4.37;;;19.10;36.60;;;;;;6178200;28;20356;-64
2023/02/03 12:17:44;;;;;;;5.73;4.73;;;17.50;39.70;;;;;;6177834;28;20234;-64
2023/02/03 12:21:00;;;;;;;4.40;4.00;;;15.30;43.60;;;;;;6173006;28;20482;-64
2023/02/03 12:24:14;;;;;;;5.40;4.23;;;14.80;45.40;;;;;;6177713;28;20798;-64
2023/02/03 12:27:31;;;;;;;5.07;4.10;;;14.90;46.00;;;;;;6201693;28;20464;-64
2023/02/03 12:30:41;;;;;;;6.93;4.37;;;14.50;47.50;;;;;;6201520;28;20826;-63
2023/02/03 12:33:49;;;;;;;7.13;4.80;;;14.40;48.20;;;;;;6201522;28;20583;-63
2023/02/03 12:36:57;;;;;;;4.60;4.00;;;15.10;48.10;;;;;;6201564;28;20480;-64
2023/02/03 12:40:09;;;;;;;6.47;4.50;;;16.00;46.40;;;;;;6201047;28;20477;-64
2023/02/03 12:43:21;;;;;;;9.87;4.90;;;15.50;46.50;;;;;;6201580;28;20469;-64
2023/02/03 12:46:29;;;;;;;6.00;5.00;;;14.50;49.10;;;;;;6201088;28;20484;-64
2023/02/03 12:49:41;;;;;;;5.90;4.87;;;14.30;50.60;;;;;;6200857;28;21004;-63
2023/02/03 12:52:52;;;;;;;5.90;4.80;;;14.70;51.10;;;;;;6201089;28;20473;-64
2023/02/03 12:56:04;;;;;;;7.30;6.47;;;15.80;50.20;;;;;;6201134;28;20484;-64
2023/02/03 12:59:14;;;;;;;11.13;5.60;;;16.20;48.20;;;;;;6201206;28;20472;-63
2023/02/03 13:02:26;;;;;;;6.10;5.60;;;16.30;48.00;;;;;;6201548;28;20477;-64
2023/02/03 13:05:40;;;;;;;8.00;6.40;;;15.30;50.10;;;;;;6200883;28;20481;-64
2023/02/03 13:08:50;;;;;;;8.00;5.80;;;15.50;50.80;;;;;;6200601;28;20492;-64
2023/02/03 13:12:01;;;;;;;6.40;5.50;;;15.90;50.60;;;;;;6200969;28;20473;-64
2023/02/03 13:15:18;;;;;;;8.20;5.80;;;15.70;50.80;;;;;;6201002;28;20483;-64
2023/02/03 13:18:27;;;;;;;6.40;5.80;;;15.60;51.60;;;;;;6201123;28;20476;-64
2023/02/03 13:21:31;;;;;;;6.10;5.50;;;15.30;52.10;;;;;;6200608;28;20503;-64
2023/02/03 13:24:34;;;;;;;7.13;6.30;;;15.10;53.10;;;;;;6201277;28;20913;-64
2023/02/03 13:27:48;;;;;;;6.23;5.67;;;14.90;53.80;;;;;;6201176;28;20536;-64
2023/02/03 13:31:06;;;;;;;6.53;5.93;;;14.70;55.20;;;;;;6152791;28;20550;-64
2023/02/03 13:34:38;;;;;;;5.50;5.00;;;14.80;55.70;;;;;;6153181;28;20533;-64
2023/02/03 13:38:29;;;;;;;5.93;5.10;;;14.70;56.20;;;;;;6149557;28;20811;-64
2023/02/03 13:41:41;;;;;;;5.63;5.13;;;15.00;56.80;;;;;;6131550;28;20487;-64
2023/02/03 13:44:51;;;;;;;7.43;4.90;;;14.80;56.10;;;;;;6152592;28;20474;-64
2023/02/03 13:47:57;;;;;;;6.50;5.50;;;14.30;57.20;;;;;;6153045;28;20489;-64
2023/02/03 13:51:06;;;;;;;8.30;5.67;;;13.90;58.10;;;;;;6152864;28;20799;-64
2023/02/03 13:54:16;;;;;;;9.37;6.90;;;13.50;59.10;;;;;;6156977;28;20454;-64
2023/02/03 13:57:22;;;;;;;7.10;6.27;;;13.20;60.30;;;;;;6157130;28;20431;-64
2023/02/03 14:01:02;;;;;;;7.97;5.83;;;12.80;62.80;;;;;;6157324;28;20505;-64
2023/02/03 14:04:07;;;;;;;6.17;5.67;;;12.50;64.50;;;;;;6151131;28;20466;-64
2023/02/03 14:07:28;;;;;;;6.23;5.30;;;12.40;65.80;;;;;;6157490;28;20486;-64
2023/02/03 14:10:31;;;;;;;5.73;5.10;;;12.20;67.00;;;;;;6157209;28;20474;-64
2023/02/03 14:13:34;;;;;;;7.17;5.10;;;12.00;68.20;;;;;;6156940;28;20481;-64
2023/02/03 14:16:40;;;;;;;7.50;5.27;;;11.70;70.90;;;;;;6157103;28;20474;-64
2023/02/03 14:19:55;;;;;;;6.13;5.63;;;11.50;73.30;;;;;;6148278;28;20599;-63
2023/02/03 14:23:06;;;;;;;6.77;6.17;;;11.20;75.80;;;;;;6132775;28;20475;-64
2023/02/03 14:26:23;;;;;;;6.23;5.50;;;11.00;79.40;;;;;;6138822;28;20486;-64
2023/02/03 14:29:28;;;;;;;7.07;5.30;;;10.80;82.20;;;;;;6173100;28;20480;-63
2023/02/03 14:32:51;;;;;;;6.07;5.37;;;10.60;84.60;;;;;;6204421;28;20476;-64
2023/02/03 14:35:54;;;;;;;5.93;5.33;;;10.40;87.40;;;;;;6204477;28;20503;-64
2023/02/03 14:39:01;;;;;;;6.67;5.83;;;10.40;89.20;;;;;;6204031;28;20575;-65
2023/02/03 14:42:10;;;;;;;5.67;5.20;;;10.30;90.40;;;;;;6204129;28;20984;-64
2023/02/03 14:45:39;;;;;;;6.33;5.70;;;10.30;91.10;;;;;;6203947;28;20779;-64
2023/02/03 14:49:19;;;;;;;6.73;6.13;;;10.30;91.80;;;;;;6204382;28;20472;-65
2023/02/03 14:52:53;;;;;;;6.33;5.70;;;10.20;92.30;;;;;;6191736;28;20473;-65
2023/02/03 14:56:11;;;;;;;7.27;5.60;;;10.20;93.10;;;;;;6204042;28;20477;-64
2023/02/03 14:59:14;;;;;;;10.23;9.10;;;10.00;94.30;;;;;;6203355;28;20808;-64
2023/02/03 15:02:21;;;;;;;10.03;9.03;;;10.00;94.40;;;;;;6203232;28;20472;-64
2023/02/03 15:05:38;;;;;;;15.60;13.23;;;10.00;94.70;;;;;;6203390;28;20464;-64
2023/02/03 15:08:44;;;;;;;8.60;7.80;;;9.90;95.70;;;;;;6203398;28;20485;-64
2023/02/03 15:11:47;;;;;;;7.10;6.40;;;9.90;95.90;;;;;;6203453;28;20484;-64
2023/02/03 15:14:50;;;;;;;8.33;7.10;;;9.90;96.10;;;;;;6203418;28;20488;-64
2023/02/03 15:17:55;;;;;;;7.70;6.17;;;9.90;96.60;;;;;;6203698;28;20484;-64
2023/02/03 15:21:00;;;;;;;7.07;5.57;;;9.90;96.70;;;;;;6203070;28;20480;-64
2023/02/03 15:24:13;;;;;;;5.87;5.20;;;9.90;96.80;;;;;;6202992;28;20481;-64
2023/02/03 15:27:24;;;;;;;6.10;5.50;;;9.80;96.90;;;;;;6203079;28;20453;-64
2023/02/03 15:30:29;;;;;;;5.73;5.23;;;9.70;96.90;;;;;;6202687;28;20489;-63
2023/02/03 15:33:34;;;;;;;6.80;5.93;;;9.70;97.40;;;;;;6203802;28;20475;-64
2023/02/03 15:36:44;;;;;;;8.17;6.83;;;9.70;97.70;;;;;;6203354;28;20476;-64
2023/02/03 15:39:57;;;;;;;7.40;5.93;;;9.60;97.70;;;;;;6203193;28;20477;-63
2023/02/03 15:43:03;;;;;;;8.87;6.50;;;9.50;97.90;;;;;;6203174;28;20476;-64
2023/02/03 15:46:15;;;;;;;8.97;6.57;;;9.40;98.20;;;;;;6203108;28;20492;-63
2023/02/03 15:49:23;;;;;;;7.73;6.50;;;9.30;98.40;;;;;;6202447;28;20491;-64
2023/02/03 15:52:30;;;;;;;7.70;6.53;;;9.30;99.10;;;;;;6202931;28;20473;-63
2023/02/03 15:55:37;;;;;;;41.73;23.67;;;9.30;98.90;;;;;;6203164;28;20499;-63
2023/02/03 15:58:45;;;;;;;25.30;16.40;;;9.20;99.10;;;;;;6204184;28;20473;-64
2023/02/03 16:01:49;;;;;;;17.43;10.47;;;9.20;99.20;;;;;;6202028;28;20490;-63
2023/02/03 16:04:53;;;;;;;9.50;8.23;;;9.20;99.30;;;;;;6202315;28;20481;-63
2023/02/03 16:08:17;;;;;;;9.77;8.90;;;9.10;99.40;;;;;;6202411;28;20961;-64
2023/02/03 16:11:30;;;;;;;8.03;7.23;;;9.10;99.50;;;;;;6202143;28;20465;-63